Time;durP1;ratioP1;P1;durP2;ratioP2;P2;SDS_P1;SDS_P2;PMS_P1;PMS_P2;Temp;Humidity;BMP_temperature;BMP_pressure;BME280_temperature;BME280_humidity;BME280_pressure;Samples;Min_cycle;Max_cycle;Signal;HPM_P1;HPM_P2
2022/04/15 03:02:02;;;;;;;21.73;20.47;;;11.30;99.90;;;;;;5208561;23;20653;-86
2022/04/15 03:04:28;;;;;;;20.03;19.03;;;11.20;99.90;;;;;;4975528;28;20166;-86
2022/04/15 03:06:54;;;;;;;18.50;17.60;;;11.10;99.90;;;;;;4980296;28;20177;-87
2022/04/15 03:09:25;;;;;;;17.77;16.87;;;11.00;99.90;;;;;;4978961;28;20189;-88
2022/04/15 03:11:51;;;;;;;20.97;19.53;;;10.90;99.90;;;;;;4964420;28;20273;-87
2022/04/15 03:14:17;;;;;;;18.00;17.00;;;10.90;99.90;;;;;;4964974;23;20260;-76
2022/04/15 03:16:44;;;;;;;16.03;14.80;;;10.80;99.90;;;;;;4933976;29;20196;-76
2022/04/15 03:19:10;;;;;;;15.03;14.27;;;10.70;99.90;;;;;;4934027;29;20505;-76
2022/04/15 03:21:38;;;;;;;13.43;12.53;;;10.60;99.90;;;;;;4934331;29;20178;-75
2022/04/15 03:24:05;;;;;;;13.40;12.70;;;10.60;99.90;;;;;;4933399;29;20570;-75
2022/04/15 03:26:31;;;;;;;15.20;14.33;;;10.60;99.90;;;;;;4934365;29;20202;-76
2022/04/15 03:28:56;;;;;;;14.17;13.47;;;10.60;99.90;;;;;;4934042;29;20240;-75
2022/04/15 03:31:22;;;;;;;14.10;13.33;;;10.50;99.90;;;;;;4934275;29;20194;-76
2022/04/15 03:33:48;;;;;;;14.47;13.60;;;10.40;99.90;;;;;;4933867;29;20245;-75
2022/04/15 03:36:14;;;;;;;12.27;11.33;;;10.30;99.90;;;;;;4933136;29;20557;-76
2022/04/15 03:38:40;;;;;;;11.00;10.37;;;10.20;99.90;;;;;;4932347;29;20175;-76
2022/04/15 03:41:06;;;;;;;9.50;8.90;;;10.20;99.90;;;;;;4933005;29;20182;-76
2022/04/15 03:43:32;;;;;;;12.07;11.37;;;10.20;99.90;;;;;;4934320;29;20213;-76
2022/04/15 03:45:59;;;;;;;13.93;13.13;;;10.00;99.90;;;;;;4932830;29;20186;-75
2022/04/15 03:48:25;;;;;;;11.17;10.33;;;9.80;99.90;;;;;;4932390;29;20189;-75
2022/04/15 03:50:52;;;;;;;16.33;15.33;;;9.70;99.90;;;;;;4934078;29;20269;-76
2022/04/15 03:53:19;;;;;;;28.53;26.77;;;9.70;99.90;;;;;;4932546;29;20210;-76
2022/04/15 03:55:45;;;;;;;44.63;42.27;;;9.70;99.90;;;;;;4933833;29;20190;-76
2022/04/15 03:58:13;;;;;;;44.70;42.40;;;9.70;99.90;;;;;;4933106;29;20245;-75
2022/04/15 04:00:39;;;;;;;17.57;16.57;;;9.70;99.90;;;;;;4932219;29;20174;-76
2022/04/15 04:03:05;;;;;;;11.63;10.83;;;9.70;99.90;;;;;;4935935;29;20689;-75
2022/04/15 04:05:31;;;;;;;24.73;23.30;;;9.60;99.90;;;;;;4935506;29;20186;-75
2022/04/15 04:07:56;;;;;;;36.47;34.53;;;9.60;99.90;;;;;;4934034;29;20187;-75
2022/04/15 04:10:22;;;;;;;11.70;10.93;;;9.70;99.90;;;;;;4934319;29;20210;-75
2022/04/15 04:12:48;;;;;;;10.87;10.23;;;9.80;99.90;;;;;;4933043;29;20644;-76
2022/04/15 04:15:14;;;;;;;10.53;9.73;;;9.80;99.90;;;;;;4932666;29;20231;-75
2022/04/15 04:17:40;;;;;;;13.53;12.63;;;9.70;99.90;;;;;;4948277;29;20236;-76
2022/04/15 04:20:09;;;;;;;13.73;12.73;;;9.60;99.90;;;;;;4932831;29;20175;-75
2022/04/15 04:22:36;;;;;;;10.80;10.20;;;9.50;99.90;;;;;;4914030;29;20269;-75
2022/04/15 04:25:03;;;;;;;8.67;8.03;;;9.50;99.90;;;;;;4916379;29;20211;-76
2022/04/15 04:27:30;;;;;;;24.80;23.47;;;9.50;99.90;;;;;;4913478;29;20187;-75
2022/04/15 04:29:56;;;;;;;118.47;112.23;;;9.50;99.90;;;;;;4917522;29;20194;-76
2022/04/15 04:32:22;;;;;;;59.87;56.63;;;9.40;99.90;;;;;;4934393;29;20214;-75
2022/04/15 04:34:48;;;;;;;53.30;50.63;;;9.50;99.90;;;;;;4935810;29;20712;-75
2022/04/15 04:37:14;;;;;;;72.00;68.30;;;9.50;99.90;;;;;;4935346;29;20178;-76
2022/04/15 04:39:40;;;;;;;28.83;26.83;;;9.60;99.90;;;;;;4933093;29;20262;-75
2022/04/15 04:42:06;;;;;;;12.43;11.37;;;9.60;99.90;;;;;;4932920;29;20281;-76
2022/04/15 04:44:34;;;;;;;14.57;13.47;;;9.60;99.90;;;;;;4932388;29;20297;-75
2022/04/15 04:47:00;;;;;;;9.20;8.60;;;9.60;99.90;;;;;;4933377;29;20189;-77
2022/04/15 04:49:26;;;;;;;16.03;15.07;;;9.60;99.90;;;;;;4932459;29;20190;-76
2022/04/15 04:51:53;;;;;;;18.97;17.67;;;9.60;99.90;;;;;;4925521;29;20195;-76
2022/04/15 04:54:19;;;;;;;17.10;16.17;;;9.70;99.90;;;;;;4921824;29;20203;-75
2022/04/15 04:56:45;;;;;;;20.10;18.90;;;9.70;99.90;;;;;;4913088;29;20822;-75
2022/04/15 04:59:11;;;;;;;19.40;18.20;;;9.80;99.90;;;;;;4914022;29;20184;-75
2022/04/15 05:01:37;;;;;;;18.27;17.13;;;9.80;99.90;;;;;;4928336;29;20182;-75
2022/04/15 05:04:02;;;;;;;10.23;9.43;;;9.90;99.90;;;;;;4932191;29;20207;-75
2022/04/15 05:06:28;;;;;;;11.17;10.37;;;10.10;99.90;;;;;;4948518;28;20186;-76
2022/04/15 05:08:54;;;;;;;9.37;8.63;;;10.10;99.90;;;;;;4935242;29;20182;-75
2022/04/15 05:11:20;;;;;;;15.93;14.97;;;10.30;99.90;;;;;;4936463;29;20198;-76
2022/04/15 05:13:46;;;;;;;7.03;6.57;;;10.40;99.90;;;;;;4936199;29;20222;-76
2022/04/15 05:16:11;;;;;;;26.43;24.73;;;10.60;99.90;;;;;;4936649;29;20189;-76
2022/04/15 05:18:37;;;;;;;9.50;8.23;;;10.80;99.90;;;;;;4935075;29;20183;-75
2022/04/15 05:21:03;;;;;;;8.60;7.93;;;11.20;99.90;;;;;;4925424;29;20264;-75
2022/04/15 05:23:29;;;;;;;16.07;15.07;;;11.60;99.90;;;;;;4934799;29;20697;-76
2022/04/15 05:25:55;;;;;;;14.60;13.63;;;11.90;99.90;;;;;;4935231;29;20551;-75
2022/04/15 05:28:20;;;;;;;14.93;14.00;;;12.10;99.90;;;;;;4934393;29;20187;-76
2022/04/15 05:30:46;;;;;;;16.03;14.93;;;12.10;99.90;;;;;;4935718;29;20186;-76
2022/04/15 05:33:12;;;;;;;18.37;17.17;;;12.20;99.90;;;;;;4936000;29;20234;-76
2022/04/15 05:35:38;;;;;;;15.30;14.20;;;12.30;99.90;;;;;;4935255;29;20277;-75
2022/04/15 05:38:07;;;;;;;9.00;8.30;;;12.50;99.90;;;;;;4937283;29;20194;-75
2022/04/15 05:40:33;;;;;;;7.23;6.57;;;12.70;99.90;;;;;;4935736;29;20182;-76
2022/04/15 05:42:58;;;;;;;8.07;7.47;;;12.90;99.90;;;;;;4935009;29;20317;-75
2022/04/15 05:45:25;;;;;;;11.70;10.80;;;13.00;99.90;;;;;;4937278;29;20270;-76
2022/04/15 05:47:53;;;;;;;10.00;9.30;;;13.00;99.90;;;;;;4935643;29;20651;-76
2022/04/15 05:50:20;;;;;;;9.83;9.13;;;12.90;99.90;;;;;;4934076;29;20182;-75
2022/04/15 05:52:46;;;;;;;9.90;9.20;;;13.10;99.90;;;;;;4952080;29;20269;-76
2022/04/15 05:55:12;;;;;;;8.97;8.03;;;13.40;99.90;;;;;;4936674;29;20186;-76
2022/04/15 05:57:37;;;;;;;7.93;7.33;;;13.80;99.90;;;;;;4935294;29;20556;-76
2022/04/15 06:00:05;;;;;;;6.63;6.10;;;14.10;99.90;;;;;;4935553;29;20179;-76
2022/04/15 06:02:31;;;;;;;9.50;8.60;;;14.60;99.90;;;;;;4935724;29;20190;-76
2022/04/15 06:04:58;;;;;;;21.57;20.37;;;14.80;99.90;;;;;;4935376;29;20622;-77
2022/04/15 06:07:23;;;;;;;15.63;14.63;;;15.10;99.90;;;;;;4935358;29;20561;-76
2022/04/15 06:09:49;;;;;;;28.27;26.67;;;15.40;99.90;;;;;;4935959;29;20186;-76
2022/04/15 06:12:15;;;;;;;50.53;47.93;;;15.80;99.90;;;;;;4936695;29;20289;-76
2022/04/15 06:14:42;;;;;;;63.07;59.83;;;16.00;99.90;;;;;;4935928;29;20249;-76
2022/04/15 06:17:08;;;;;;;94.60;89.77;;;16.20;99.90;;;;;;4935138;29;20182;-76
2022/04/15 06:19:33;;;;;;;89.90;85.50;;;16.20;99.90;;;;;;4934224;29;20182;-71
2022/04/15 06:21:59;;;;;;;40.60;38.23;;;16.40;99.90;;;;;;4935036;29;20182;-72
2022/04/15 06:24:25;;;;;;;18.17;17.00;;;16.60;99.90;;;;;;4935320;29;20308;-72
2022/04/15 06:26:54;;;;;;;6.33;5.83;;;16.90;99.90;;;;;;4933543;29;20189;-72
2022/04/15 06:29:19;;;;;;;7.33;6.80;;;17.10;99.90;;;;;;4935328;29;20174;-72
2022/04/15 06:31:46;;;;;;;17.57;16.40;;;17.40;99.90;;;;;;4935144;29;20651;-71
2022/04/15 06:34:13;;;;;;;17.00;15.83;;;17.50;99.90;;;;;;4933755;29;20248;-72
2022/04/15 06:36:38;;;;;;;9.17;8.57;;;17.80;99.90;;;;;;4934087;29;20604;-71
2022/04/15 06:39:04;;;;;;;7.97;7.37;;;17.80;99.90;;;;;;4934801;29;20218;-71
2022/04/15 06:41:30;;;;;;;6.93;6.53;;;18.30;99.90;;;;;;4934360;29;20178;-71
2022/04/15 06:43:56;;;;;;;8.20;7.60;;;18.60;99.90;;;;;;4949709;29;20209;-71
2022/04/15 06:46:21;;;;;;;10.50;9.80;;;18.60;99.90;;;;;;4934980;29;20190;-71
2022/04/15 06:48:47;;;;;;;11.02;10.15;;;18.30;99.90;;;;;;4949141;29;20178;-71
2022/04/15 06:51:13;;;;;;;8.17;7.60;;;18.50;99.90;;;;;;4934744;29;20709;-71
2022/04/15 06:53:38;;;;;;;11.97;11.27;;;18.40;99.90;;;;;;4934800;29;20216;-71
2022/04/15 06:56:04;;;;;;;18.60;17.53;;;18.50;99.90;;;;;;4933710;29;20642;-72
2022/04/15 06:58:30;;;;;;;14.57;13.60;;;18.80;99.90;;;;;;4934361;29;20190;-72
2022/04/15 07:00:56;;;;;;;9.23;8.70;;;18.70;99.90;;;;;;4934571;29;20186;-72
2022/04/15 07:03:24;;;;;;;11.73;11.00;;;18.50;99.90;;;;;;4934206;29;20210;-72
2022/04/15 07:05:50;;;;;;;19.10;17.90;;;18.70;99.90;;;;;;4933337;29;20655;-71
2022/04/15 07:08:16;;;;;;;20.67;19.47;;;19.10;99.90;;;;;;4933025;29;20326;-71
2022/04/15 07:10:42;;;;;;;19.38;18.25;;;19.20;99.90;;;;;;4933537;29;20190;-71
2022/04/15 07:13:08;;;;;;;16.35;15.23;;;19.60;99.90;;;;;;4931533;29;20242;-71
2022/04/15 07:15:34;;;;;;;15.83;14.87;;;19.70;99.90;;;;;;4934841;29;20658;-71
2022/04/15 07:18:05;;;;;;;15.20;14.20;;;19.90;99.90;;;;;;4934388;29;20647;-72
2022/04/15 07:20:31;;;;;;;18.33;17.23;;;20.10;99.90;;;;;;4934760;29;20261;-72
2022/04/15 07:22:58;;;;;;;22.50;21.25;;;20.30;99.90;;;;;;4934577;29;20215;-72
2022/04/15 07:25:25;;;;;;;30.40;28.02;;;20.60;99.90;;;;;;4935038;29;20213;-71
2022/04/15 07:27:52;;;;;;;24.38;22.92;;;20.70;99.90;;;;;;4933278;29;20192;-71
2022/04/15 07:30:18;;;;;;;24.08;22.40;;;20.30;99.90;;;;;;4934396;29;20182;-71
2022/04/15 07:32:44;;;;;;;25.90;24.45;;;20.30;99.90;;;;;;4935361;29;20202;-71
2022/04/15 07:35:10;;;;;;;32.08;30.13;;;20.60;99.90;;;;;;4937434;29;20190;-71
2022/04/15 07:37:36;;;;;;;25.42;23.95;;;20.90;99.90;;;;;;4934686;29;20592;-71
2022/04/15 07:40:03;;;;;;;17.27;16.17;;;21.30;99.90;;;;;;4935061;29;20277;-71
2022/04/15 07:42:29;;;;;;;11.57;10.88;;;21.60;99.90;;;;;;4933012;29;20671;-71
2022/04/15 07:44:55;;;;;;;9.82;8.43;;;21.70;99.90;;;;;;4934396;29;20209;-71
2022/04/15 07:47:21;;;;;;;12.45;11.43;;;22.20;99.90;;;;;;4932982;29;20182;-72
2022/04/15 07:49:46;;;;;;;13.82;12.80;;;22.10;99.90;;;;;;4933305;29;20183;-72
2022/04/15 07:52:12;;;;;;;14.10;12.90;;;21.80;99.90;;;;;;4933704;29;20182;-71
2022/04/15 07:54:38;;;;;;;13.35;12.32;;;21.90;99.90;;;;;;4935040;29;20206;-72
2022/04/15 07:57:04;;;;;;;14.65;13.50;;;21.90;99.90;;;;;;4933360;29;20184;-72
2022/04/15 07:59:29;;;;;;;13.02;12.00;;;21.90;99.90;;;;;;4934265;29;20682;-72
2022/04/15 08:01:56;;;;;;;13.38;12.20;;;21.90;99.90;;;;;;4933821;29;20175;-72
2022/04/15 08:04:22;;;;;;;12.13;10.13;;;22.30;99.90;;;;;;4933835;29;20209;-71
2022/04/15 08:06:48;;;;;;;9.63;8.80;;;22.50;98.80;;;;;;4933843;29;20175;-72
2022/04/15 08:09:14;;;;;;;9.65;8.88;;;22.50;98.50;;;;;;4948700;29;20189;-72
2022/04/15 08:11:39;;;;;;;8.65;7.95;;;22.90;98.50;;;;;;4933842;29;20649;-71
2022/04/15 08:14:05;;;;;;;9.77;8.43;;;22.90;97.20;;;;;;4932666;29;20217;-71
2022/04/15 08:16:31;;;;;;;9.05;8.05;;;22.80;97.00;;;;;;4934009;29;20205;-71
2022/04/15 08:18:57;;;;;;;8.05;7.35;;;22.90;96.10;;;;;;4933575;29;20178;-71
2022/04/15 08:21:23;;;;;;;10.15;9.00;;;22.90;97.30;;;;;;4932451;29;20186;-74
2022/04/15 08:23:50;;;;;;;9.82;8.82;;;23.10;95.50;;;;;;4933912;29;20231;-71
2022/04/15 08:26:16;;;;;;;10.68;8.32;;;23.10;95.10;;;;;;4934222;29;20650;-71
2022/04/15 08:28:41;;;;;;;8.98;8.20;;;23.40;95.60;;;;;;4935064;29;20197;-72
2022/04/15 08:31:08;;;;;;;9.30;8.15;;;23.40;95.20;;;;;;4935666;29;20187;-71
2022/04/15 08:33:37;;;;;;;10.45;8.48;;;23.50;94.60;;;;;;4934934;29;20229;-71
2022/04/15 08:36:05;;;;;;;10.13;9.13;;;23.70;94.30;;;;;;4934127;29;20533;-72
2022/04/15 08:38:30;;;;;;;9.88;8.98;;;24.00;93.20;;;;;;4935414;29;20190;-71
2022/04/15 08:40:58;;;;;;;9.50;8.65;;;24.60;92.30;;;;;;4936183;29;20584;-71
2022/04/15 08:43:25;;;;;;;10.20;9.30;;;24.80;91.20;;;;;;4938839;29;20206;-71
2022/04/15 08:45:52;;;;;;;9.30;8.40;;;24.80;91.00;;;;;;4937645;29;20586;-72
2022/04/15 08:48:18;;;;;;;10.23;9.02;;;24.80;90.30;;;;;;4931091;29;20612;-72
2022/04/15 08:50:43;;;;;;;9.98;8.98;;;24.90;90.00;;;;;;4921862;29;20190;-72
2022/04/15 08:53:10;;;;;;;11.27;9.98;;;24.40;88.90;;;;;;4934014;29;20211;-73
2022/04/15 08:55:36;;;;;;;11.63;10.50;;;23.90;88.70;;;;;;4951716;29;20191;-73
2022/04/15 08:58:02;;;;;;;11.43;10.32;;;23.60;87.60;;;;;;4936886;29;20194;-68
2022/04/15 09:00:29;;;;;;;11.75;9.50;;;23.90;86.00;;;;;;4937027;29;20209;-69
2022/04/15 09:02:55;;;;;;;11.27;10.27;;;24.10;85.30;;;;;;4936121;29;20194;-70
2022/04/15 09:05:24;;;;;;;25.63;13.60;;;24.20;86.60;;;;;;4935838;29;20337;-68
2022/04/15 09:08:04;;;;;;;14.60;13.10;;;24.00;84.50;;;;;;4935264;29;20187;-68
2022/04/15 09:10:33;;;;;;;13.35;12.05;;;23.60;84.00;;;;;;4929960;29;20190;-68
2022/04/15 09:12:59;;;;;;;15.15;13.63;;;23.70;85.80;;;;;;4932033;29;20198;-70
2022/04/15 09:15:25;;;;;;;18.77;14.07;;;23.70;85.50;;;;;;4957095;23;20586;-72
2022/04/15 09:17:52;;;;;;;14.57;13.15;;;24.00;83.70;;;;;;4934622;29;20185;-73
2022/04/15 09:20:19;;;;;;;15.73;12.55;;;23.70;82.50;;;;;;4936500;29;20187;-71
2022/04/15 09:22:46;;;;;;;13.90;12.50;;;23.60;83.90;;;;;;4949082;29;20296;-73
2022/04/15 09:25:13;;;;;;;13.85;12.43;;;23.70;83.20;;;;;;4939981;29;20206;-74
2022/04/15 09:27:40;;;;;;;12.55;11.35;;;23.70;84.70;;;;;;4931882;29;20198;-71
2022/04/15 09:30:06;;;;;;;13.10;12.00;;;23.90;85.40;;;;;;4911060;29;20219;-71
2022/04/15 09:32:33;;;;;;;14.82;11.88;;;24.30;84.00;;;;;;4919736;29;20213;-71
2022/04/15 09:34:59;;;;;;;14.18;13.05;;;23.90;83.20;;;;;;4936066;29;20205;-71
2022/04/15 09:37:29;;;;;;;13.43;12.23;;;23.60;82.20;;;;;;4934845;29;20217;-71
2022/04/15 09:40:07;;;;;;;14.23;12.93;;;23.60;84.30;;;;;;4937942;29;20190;-71
2022/04/15 09:42:34;;;;;;;15.30;13.93;;;24.20;81.80;;;;;;4934228;29;20190;-70
2022/04/15 09:45:18;;;;;;;13.93;12.45;;;23.80;78.70;;;;;;4936229;29;20202;-69
2022/04/15 09:47:54;;;;;;;15.10;13.80;;;23.30;80.20;;;;;;4935952;29;20191;-73
2022/04/15 09:50:30;;;;;;;15.48;13.98;;;23.10;80.60;;;;;;4936487;29;20244;-69
2022/04/15 09:53:21;;;;;;;13.52;12.13;;;23.10;82.10;;;;;;4919538;29;20293;-68
2022/04/15 09:55:48;;;;;;;13.02;11.73;;;23.60;80.60;;;;;;4935844;29;20198;-69
2022/04/15 09:58:19;;;;;;;13.18;11.98;;;23.40;76.80;;;;;;4935300;29;20197;-69
2022/04/15 10:00:48;;;;;;;16.65;15.00;;;24.20;79.70;;;;;;4934858;29;20182;-69
2022/04/15 10:03:24;;;;;;;13.07;11.88;;;23.90;79.60;;;;;;4920048;29;20191;-68
2022/04/15 10:05:53;;;;;;;14.07;12.85;;;24.00;78.40;;;;;;4917134;29;20186;-69
2022/04/15 10:08:26;;;;;;;13.68;12.30;;;23.80;78.00;;;;;;4917239;29;20187;-69
2022/04/15 10:10:53;;;;;;;10.90;9.77;;;23.80;77.30;;;;;;4915805;29;20198;-69
2022/04/15 10:13:27;;;;;;;12.93;11.75;;;23.60;75.70;;;;;;4928623;29;20296;-69
2022/04/15 10:15:55;;;;;;;13.43;12.15;;;23.40;75.20;;;;;;4915931;29;20607;-74
2022/04/15 10:18:22;;;;;;;14.60;13.30;;;23.20;76.50;;;;;;4931553;29;20210;-75
2022/04/15 10:20:48;;;;;;;13.88;12.73;;;22.80;79.20;;;;;;4934808;29;20191;-75
2022/04/15 10:23:15;;;;;;;12.82;11.40;;;23.00;78.90;;;;;;4935184;29;20451;-74
2022/04/15 10:25:46;;;;;;;10.43;9.63;;;23.20;77.40;;;;;;4917996;29;20211;-74
2022/04/15 10:28:42;;;;;;;9.30;8.40;;;23.60;72.40;;;;;;4915075;29;20666;-74
2022/04/15 10:31:16;;;;;;;10.68;9.77;;;24.30;70.70;;;;;;4916565;29;20195;-74
2022/04/15 10:33:49;;;;;;;10.27;9.15;;;24.80;68.90;;;;;;4916715;29;20600;-75
2022/04/15 10:36:23;;;;;;;10.25;9.35;;;24.90;67.70;;;;;;4935524;29;20193;-75
2022/04/15 10:39:07;;;;;;;11.18;10.25;;;24.40;66.50;;;;;;4936560;29;20679;-75
2022/04/15 10:41:42;;;;;;;10.80;9.85;;;24.20;67.10;;;;;;4940964;29;20225;-75
2022/04/15 10:44:24;;;;;;;9.60;8.65;;;24.80;64.90;;;;;;4933712;29;20712;-73
2022/04/15 10:46:50;;;;;;;9.50;8.70;;;25.70;62.40;;;;;;4897152;29;20303;-74
2022/04/15 10:49:20;;;;;;;9.80;9.00;;;25.50;64.40;;;;;;4897017;29;20274;-74
2022/04/15 10:51:50;;;;;;;8.88;8.10;;;25.40;63.00;;;;;;4897092;29;20188;-74
2022/04/15 10:54:45;;;;;;;9.90;9.02;;;24.90;63.30;;;;;;4908075;29;20210;-74
2022/04/15 10:57:22;;;;;;;9.77;8.88;;;25.30;63.70;;;;;;4934815;29;20194;-75
2022/04/15 11:02:49;;;;;;;33.42;26.95;;;25.80;65.60;;;;;;4934721;29;20273;-74
2022/04/15 11:05:32;;;;;;;124.72;84.30;;;25.10;62.70;;;;;;4924484;29;20212;-75
2022/04/15 11:08:03;;;;;;;103.32;71.68;;;25.60;61.80;;;;;;4915413;29;20278;-74
2022/04/15 11:11:07;;;;;;;25.27;20.75;;;26.80;59.00;;;;;;4914993;29;20218;-75
2022/04/15 11:14:00;;;;;;;17.25;15.73;;;27.70;57.80;;;;;;4915657;29;20221;-75
2022/04/15 11:16:43;;;;;;;14.13;13.07;;;27.50;56.60;;;;;;4935818;29;20190;-74
2022/04/15 11:19:11;;;;;;;14.38;13.25;;;27.00;57.20;;;;;;4935257;29;20187;-74
2022/04/15 11:21:39;;;;;;;15.27;13.77;;;26.40;58.50;;;;;;4944850;29;20182;-74
2022/04/15 11:24:10;;;;;;;14.00;12.80;;;26.10;59.00;;;;;;4946069;29;20202;-74
2022/04/15 11:26:38;;;;;;;10.13;9.35;;;25.20;59.50;;;;;;4917088;29;20541;-74
2022/04/15 11:29:06;;;;;;;10.35;9.52;;;25.20;61.50;;;;;;4914161;29;20209;-74
2022/04/15 11:31:40;;;;;;;11.30;10.40;;;25.50;58.90;;;;;;4915408;29;20655;-75
2022/04/15 11:34:17;;;;;;;10.52;9.55;;;25.40;59.10;;;;;;4918547;29;20221;-74
2022/04/15 11:36:46;;;;;;;9.98;9.07;;;24.10;60.90;;;;;;4934072;29;20734;-74
2022/04/15 11:39:17;;;;;;;10.40;9.15;;;22.90;64.00;;;;;;4934132;29;20651;-74
2022/04/15 11:41:44;;;;;;;12.48;8.88;;;22.90;63.70;;;;;;4934363;29;20182;-75
2022/04/15 11:44:10;;;;;;;11.75;10.68;;;23.30;63.70;;;;;;4928934;29;20203;-75
2022/04/15 11:46:36;;;;;;;16.92;13.98;;;23.40;66.80;;;;;;4914188;29;20187;-75
2022/04/15 11:49:19;;;;;;;12.77;11.57;;;24.20;65.70;;;;;;4914825;29;20261;-75
2022/04/15 11:51:52;;;;;;;14.38;13.05;;;25.10;61.60;;;;;;4913906;29;20222;-75
2022/04/15 11:54:22;;;;;;;11.90;10.52;;;26.40;59.50;;;;;;4916158;29;20215;-75
2022/04/15 11:56:55;;;;;;;10.85;9.80;;;26.60;56.70;;;;;;4896030;29;20222;-75
2022/04/15 11:59:21;;;;;;;14.93;13.63;;;27.20;56.30;;;;;;4896214;29;20274;-75
2022/04/15 12:01:47;;;;;;;15.68;14.48;;;27.00;55.90;;;;;;4896172;29;20270;-75
2022/04/15 12:04:13;;;;;;;13.95;12.95;;;26.50;55.50;;;;;;4931426;29;20559;-75
2022/04/15 12:06:41;;;;;;;15.68;14.35;;;25.40;56.20;;;;;;4934059;29;20312;-75
2022/04/15 12:09:13;;;;;;;13.43;12.32;;;25.60;58.20;;;;;;4936466;29;20192;-75
2022/04/15 12:11:39;;;;;;;11.50;10.48;;;26.40;56.80;;;;;;4938894;29;20190;-75
2022/04/15 12:14:08;;;;;;;12.45;11.60;;;27.40;53.50;;;;;;4917711;29;20596;-74
2022/04/15 12:16:36;;;;;;;9.63;8.75;;;28.10;53.80;;;;;;4915734;29;20182;-75
2022/04/15 12:19:03;;;;;;;8.98;7.57;;;28.10;51.30;;;;;;4917236;29;20191;-75
2022/04/15 12:21:30;;;;;;;8.90;8.10;;;27.60;51.80;;;;;;4919124;29;20247;-75
2022/04/15 12:24:08;;;;;;;8.95;8.00;;;27.60;51.50;;;;;;4931014;29;20202;-74
2022/04/15 12:26:45;;;;;;;7.57;6.97;;;28.30;50.30;;;;;;4927538;29;20191;-75
2022/04/15 12:32:16;;;;;;;8.63;7.80;;;28.30;49.40;;;;;;4918603;29;20271;-75
2022/04/15 12:34:43;;;;;;;8.82;8.07;;;27.40;49.60;;;;;;4918586;29;20718;-75
2022/04/15 12:37:34;;;;;;;9.00;8.30;;;27.50;50.80;;;;;;4918352;29;20179;-74
2022/04/15 12:40:09;;;;;;;8.48;7.88;;;27.20;49.80;;;;;;4918784;29;20555;-75
2022/04/15 12:42:37;;;;;;;9.30;8.50;;;27.40;49.80;;;;;;4919127;29;20197;-75
2022/04/15 12:45:10;;;;;;;9.02;8.32;;;27.40;49.20;;;;;;4937481;29;20202;-75
2022/04/15 12:47:39;;;;;;;8.50;7.60;;;27.70;48.60;;;;;;4936081;29;20210;-75
2022/04/15 12:50:28;;;;;;;8.57;7.78;;;27.60;47.90;;;;;;4937318;29;20195;-75
2022/04/15 12:52:55;;;;;;;8.63;8.05;;;28.80;47.20;;;;;;4929322;29;20211;-75
2022/04/15 12:55:26;;;;;;;12.95;11.95;;;29.90;47.30;;;;;;4918249;29;20294;-75
2022/04/15 12:57:52;;;;;;;11.90;11.10;;;29.90;44.30;;;;;;4917882;29;20183;-74
2022/04/15 13:00:18;;;;;;;10.60;9.80;;;30.10;43.70;;;;;;4919052;29;20707;-75
2022/04/15 13:02:44;;;;;;;16.92;15.57;;;30.20;44.80;;;;;;4930531;29;20190;-73
2022/04/15 13:05:10;;;;;;;15.35;14.15;;;29.30;47.20;;;;;;4949255;29;20571;-74
2022/04/15 13:07:37;;;;;;;23.27;21.67;;;28.60;45.90;;;;;;4937142;29;20306;-74
2022/04/15 13:10:05;;;;;;;11.18;10.07;;;26.60;49.10;;;;;;4937229;29;20237;-73
2022/04/15 13:12:31;;;;;;;9.20;8.45;;;26.20;52.10;;;;;;4934115;29;20214;-75
2022/04/15 13:14:57;;;;;;;10.75;9.75;;;27.60;50.60;;;;;;4918136;29;20219;-75
2022/04/15 13:17:23;;;;;;;17.17;16.05;;;29.00;47.50;;;;;;4917643;29;20538;-75
2022/04/15 13:19:49;;;;;;;14.63;13.63;;;30.10;45.10;;;;;;4917799;29;20255;-75
2022/04/15 13:22:16;;;;;;;18.25;17.05;;;29.90;45.80;;;;;;4918446;29;20187;-75
2022/04/15 13:24:42;;;;;;;13.90;12.90;;;29.40;45.50;;;;;;4933110;29;20210;-74
2022/04/15 13:27:09;;;;;;;17.77;16.65;;;28.70;46.80;;;;;;4934809;29;20186;-75
2022/04/15 13:29:37;;;;;;;17.27;16.00;;;28.60;47.60;;;;;;4935373;29;20674;-74
2022/04/15 13:32:04;;;;;;;11.88;11.00;;;27.40;49.70;;;;;;4936611;29;20190;-74
2022/04/15 13:34:35;;;;;;;11.48;10.35;;;27.30;49.60;;;;;;4918223;29;20714;-75
2022/04/15 13:37:03;;;;;;;12.07;11.07;;;27.80;49.20;;;;;;4917297;29;20648;-75
2022/04/15 13:39:30;;;;;;;20.52;19.27;;;28.60;47.60;;;;;;4918516;29;20186;-75
2022/04/15 13:41:58;;;;;;;14.88;13.77;;;29.60;46.00;;;;;;4920024;29;20610;-74
2022/04/15 13:44:25;;;;;;;14.27;13.32;;;29.70;46.50;;;;;;4934009;29;20210;-75
2022/04/15 13:46:51;;;;;;;13.20;12.40;;;29.50;45.60;;;;;;4935909;29;20182;-74
2022/04/15 13:49:17;;;;;;;15.48;14.27;;;29.70;45.40;;;;;;4936314;29;20266;-75
2022/04/15 13:51:43;;;;;;;17.00;15.95;;;29.60;45.20;;;;;;4934960;29;20285;-75
2022/04/15 13:56:54;;;;;;;15.55;14.25;;;28.70;48.90;;;;;;4916839;29;20651;-73
2022/04/15 13:59:20;;;;;;;11.95;10.65;;;28.20;49.70;;;;;;4918626;29;20186;-74
2022/04/15 14:01:47;;;;;;;11.30;10.20;;;27.70;51.10;;;;;;4916950;29;20183;-76
2022/04/15 14:04:14;;;;;;;11.63;10.82;;;27.40;51.00;;;;;;4926919;29;20206;-74
2022/04/15 14:06:45;;;;;;;11.18;10.35;;;28.00;49.80;;;;;;4934558;29;20218;-73
2022/04/15 14:09:12;;;;;;;15.40;14.30;;;29.10;48.30;;;;;;4934607;29;20186;-74
2022/04/15 14:11:46;;;;;;;17.52;16.23;;;29.70;46.70;;;;;;4935859;29;20237;-74
2022/04/15 14:14:13;;;;;;;20.15;18.48;;;29.40;47.20;;;;;;4920872;29;20270;-74
2022/04/15 14:16:40;;;;;;;21.88;20.15;;;28.70;47.30;;;;;;4917137;29;20179;-74
2022/04/15 14:19:09;;;;;;;14.65;13.45;;;27.90;48.50;;;;;;4916357;29;20210;-75
2022/04/15 14:21:36;;;;;;;17.38;16.05;;;28.20;48.20;;;;;;4916821;29;20231;-75
2022/04/15 14:24:05;;;;;;;13.00;11.82;;;28.20;47.00;;;;;;4925855;29;20213;-75
2022/04/15 14:26:33;;;;;;;14.30;13.23;;;28.40;48.10;;;;;;4935633;29;20556;-75
2022/04/15 14:28:59;;;;;;;13.10;12.20;;;28.00;47.80;;;;;;4935038;29;20189;-75
2022/04/15 14:31:25;;;;;;;14.30;13.32;;;27.90;48.30;;;;;;4935157;29;20282;-75
2022/04/15 14:33:51;;;;;;;13.57;12.57;;;27.50;49.20;;;;;;4923343;29;20222;-75
2022/04/15 14:36:17;;;;;;;14.63;13.60;;;26.70;48.40;;;;;;4916075;29;20190;-68
2022/04/15 14:38:43;;;;;;;18.60;17.20;;;24.90;52.00;;;;;;4909010;29;20183;-69
2022/04/15 14:41:09;;;;;;;19.35;18.17;;;24.00;55.00;;;;;;4915681;29;20184;-69
2022/04/15 14:43:37;;;;;;;21.02;19.73;;;25.00;54.10;;;;;;4925859;29;20224;-68
2022/04/15 14:46:04;;;;;;;21.33;20.02;;;25.90;51.00;;;;;;4923470;29;20606;-69
2022/04/15 14:48:32;;;;;;;18.45;17.27;;;26.10;51.30;;;;;;4919737;29;20190;-69
2022/04/15 14:50:58;;;;;;;18.35;17.05;;;26.10;50.10;;;;;;4915969;29;20214;-69
2022/04/15 14:53:27;;;;;;;19.42;18.30;;;26.40;50.20;;;;;;4915720;29;20613;-69
2022/04/15 14:55:53;;;;;;;13.63;12.73;;;27.40;49.30;;;;;;4915467;29;20640;-68
2022/04/15 14:58:18;;;;;;;8.35;7.75;;;27.90;47.70;;;;;;4914988;29;20219;-68
2022/04/15 15:00:44;;;;;;;8.50;7.95;;;28.10;47.50;;;;;;4915245;29;20288;-68
2022/04/15 15:03:10;;;;;;;10.95;10.35;;;27.60;48.00;;;;;;4916622;29;20183;-69
2022/04/15 15:05:37;;;;;;;12.93;12.13;;;27.00;48.20;;;;;;4934582;29;20573;-69
2022/04/15 15:08:03;;;;;;;10.73;10.07;;;26.90;47.60;;;;;;4932816;29;20197;-69
2022/04/15 15:10:28;;;;;;;13.93;13.02;;;26.60;47.90;;;;;;4934204;29;20270;-69
2022/04/15 15:12:54;;;;;;;14.18;13.10;;;27.00;47.90;;;;;;4930771;29;20298;-69
2022/04/15 15:15:20;;;;;;;12.82;11.93;;;26.70;48.80;;;;;;4948332;23;20226;-66
2022/04/15 15:17:46;;;;;;;15.55;14.55;;;25.90;48.90;;;;;;4944537;29;20242;-67
2022/04/15 15:20:13;;;;;;;15.85;14.70;;;25.40;50.20;;;;;;4943985;29;20205;-67
2022/04/15 15:22:42;;;;;;;16.70;15.70;;;25.70;51.20;;;;;;4951642;29;20197;-69
2022/04/15 15:30:45;;;;;;;14.48;13.60;;;26.20;49.00;;;;;;4953266;29;20720;-71
2022/04/15 15:33:16;;;;;;;15.25;14.45;;;25.60;49.80;;;;;;4948142;28;20209;-71
2022/04/15 15:35:42;;;;;;;17.05;16.05;;;25.10;49.70;;;;;;4932917;29;20202;-71
2022/04/15 15:38:08;;;;;;;16.67;15.73;;;25.10;51.10;;;;;;4933681;29;20178;-71
2022/04/15 15:40:34;;;;;;;14.57;13.73;;;25.40;50.20;;;;;;4934633;29;20186;-72
2022/04/15 15:43:03;;;;;;;15.48;14.63;;;25.30;50.50;;;;;;4933684;29;20265;-72
2022/04/15 15:45:30;;;;;;;13.43;12.65;;;25.30;50.70;;;;;;4934319;29;20218;-71
2022/04/15 15:47:57;;;;;;;14.95;13.82;;;25.80;49.50;;;;;;4935649;29;20185;-70
2022/04/15 15:50:23;;;;;;;16.63;15.52;;;26.20;49.20;;;;;;4934641;29;20217;-73
2022/04/15 15:52:49;;;;;;;16.63;15.63;;;25.90;49.40;;;;;;4934332;29;20210;-73